Time;durP1;ratioP1;P1;durP2;ratioP2;P2;SDS_P1;SDS_P2;PMS_P1;PMS_P2;Temp;Humidity;BMP_temperature;BMP_pressure;BME280_temperature;BME280_humidity;BME280_pressure;Samples;Min_cycle;Max_cycle;Signal;HPM_P1;HPM_P2
2022/09/25 00:01:11;;;;;;;;;7.25;5.50;;;;;14.26;68.80;100622.47;5067285;28;45575;-81
2022/09/25 00:03:37;;;;;;;;;7.75;3.00;;;;;14.23;68.67;100606.63;5089855;27;46191;-82
2022/09/25 00:06:05;;;;;;;;;4.00;4.00;;;;;14.16;68.61;100629.88;5085332;27;45256;-82
2022/09/25 00:08:32;;;;;;;;;7.00;6.00;;;;;13.78;68.86;100565.63;5073395;27;45463;-82
2022/09/25 00:10:57;;;;;;;;;2.50;2.00;;;;;13.76;68.43;100569.28;5091008;27;45577;-82
2022/09/25 00:13:23;;;;;;;;;9.00;7.00;;;;;13.92;68.76;100605.00;5072854;27;45507;-82
2022/09/25 00:15:52;;;;;;;;;8.00;6.75;;;;;14.03;68.96;100640.06;5093227;27;45634;-82
2022/09/25 00:19:48;;;;;;;;;9.50;9.00;;;;;14.04;69.29;100644.47;5091471;27;45429;-82
2022/09/25 00:21:05;;;;;;;;;5.25;5.25;;;;;14.01;69.15;100625.97;5080888;27;45512;-81
2022/09/25 00:23:31;;;;;;;;;6.00;6.00;;;;;14.06;68.90;100636.47;5094235;27;46247;-82
2022/09/25 00:25:58;;;;;;;;;6.75;6.75;;;;;13.96;69.07;100611.09;5092469;27;45543;-83
2022/09/25 00:28:24;;;;;;;;;5.75;5.75;;;;;14.08;69.24;100647.03;5090533;27;45350;-83
2022/09/25 00:30:49;;;;;;;;;6.50;5.50;;;;;14.05;69.59;100645.34;5094329;27;45487;-81
2022/09/25 00:33:14;;;;;;;;;8.00;5.75;;;;;13.97;69.56;100637.63;5096175;27;45703;-84
2022/09/25 00:35:40;;;;;;;;;5.75;5.00;;;;;14.03;69.53;100636.56;5098217;27;48659;-82
2022/09/25 00:38:05;;;;;;;;;5.25;5.25;;;;;14.03;69.22;100648.03;5088178;27;45443;-82
2022/09/25 00:40:30;;;;;;;;;4.25;4.00;;;;;14.00;69.30;100634.00;5088888;27;45489;-82
2022/09/25 00:42:56;;;;;;;;;5.50;5.50;;;;;13.58;69.54;100576.91;5085675;27;46260;-82
2022/09/25 00:45:21;;;;;;;;;5.00;5.00;;;;;13.86;69.81;100618.50;5069696;27;45430;-82
2022/09/25 00:48:06;;;;;;;;;5.25;5.25;;;;;14.03;69.88;100642.72;5064019;27;45376;-82
2022/09/25 00:50:48;;;;;;;;;6.00;3.50;;;;;14.03;69.43;100634.75;5089920;27;45475;-82
2022/09/25 00:53:17;;;;;;;;;8.75;6.25;;;;;14.02;69.97;100635.66;5091001;27;45611;-82
2022/09/25 00:55:44;;;;;;;;;7.00;6.00;;;;;13.92;69.33;100618.28;5086068;27;45666;-83
2022/09/25 00:58:13;;;;;;;;;3.00;3.00;;;;;13.70;69.32;100578.31;5092139;27;45594;-83
2022/09/25 01:00:39;;;;;;;;;5.25;3.50;;;;;13.97;69.58;100634.09;5092337;27;45431;-82
2022/09/25 01:03:07;;;;;;;;;10.00;6.00;;;;;14.01;69.56;100633.06;5090227;27;46593;-82
2022/09/25 01:05:36;;;;;;;;;5.50;5.25;;;;;13.99;69.66;100621.63;5091667;27;45460;-82
2022/09/25 01:08:04;;;;;;;;;5.75;5.50;;;;;13.98;69.92;100626.09;5087155;27;45420;-81
2022/09/25 01:10:30;;;;;;;;;6.50;6.50;;;;;13.87;69.75;100614.94;5097304;27;45523;-83
2022/09/25 01:12:57;;;;;;;;;3.00;3.00;;;;;13.99;69.44;100633.13;5107676;27;45497;-82
2022/09/25 01:15:32;;;;;;;;;6.00;6.00;;;;;13.92;69.87;100626.25;5099945;27;45449;-81
2022/09/25 01:18:10;;;;;;;;;5.50;5.25;;;;;13.86;70.00;100610.53;5087939;27;45568;-81
2022/09/25 01:21:01;;;;;;;;;5.75;5.75;;;;;13.94;69.51;100637.72;5083484;27;45677;-83
2022/09/25 01:23:29;;;;;;;;;5.50;4.00;;;;;13.92;70.05;100633.38;5095045;27;46286;-80
2022/09/25 01:26:22;;;;;;;;;8.50;6.50;;;;;13.87;70.19;100638.84;5094922;27;45616;-82
2022/09/25 01:29:00;;;;;;;;;7.00;7.00;;;;;13.83;70.07;100635.41;5093347;27;45592;-81
2022/09/25 01:31:34;;;;;;;;;7.00;7.00;;;;;13.80;70.37;100638.19;5084071;27;45540;-82
2022/09/25 01:34:12;;;;;;;;;8.25;6.00;;;;;13.75;70.17;100629.47;5087647;27;45533;-81
2022/09/25 01:36:46;;;;;;;;;5.50;5.50;;;;;13.44;70.64;100581.81;5088135;27;45337;-82
2022/09/25 01:39:20;;;;;;;;;8.75;7.50;;;;;13.68;70.41;100609.38;5086792;27;45546;-82
2022/09/25 01:41:57;;;;;;;;;10.00;6.00;;;;;13.74;70.47;100621.56;5106453;27;45824;-83
2022/09/25 01:44:29;;;;;;;;;9.50;9.00;;;;;13.41;71.01;100573.94;5097292;27;46671;-83
2022/09/25 01:47:03;;;;;;;;;13.00;7.00;;;;;13.67;71.15;100612.94;5097098;27;45305;-82
2022/09/25 01:49:42;;;;;;;;;6.25;5.00;;;;;13.37;70.52;100562.53;5085709;27;45518;-82
2022/09/25 01:52:14;;;;;;;;;4.50;2.50;;;;;13.74;71.05;100621.56;5065867;27;45609;-81
2022/09/25 01:54:45;;;;;;;;;2.25;2.25;;;;;13.73;70.89;100622.50;5094271;27;46557;-80
2022/09/25 01:57:38;;;;;;;;;7.25;5.75;;;;;13.68;71.31;100620.84;5089228;27;45531;-82
2022/09/25 02:00:13;;;;;;;;;9.00;7.00;;;;;13.56;71.24;100600.00;5062756;27;45481;-83
2022/09/25 02:02:47;;;;;;;;;8.00;6.50;;;;;13.65;71.16;100625.41;5095037;27;45649;-81
2022/09/25 02:05:22;;;;;;;;;6.50;6.50;;;;;13.65;71.00;100630.72;5087629;27;45780;-83
2022/09/25 02:07:52;;;;;;;;;5.00;4.50;;;;;13.59;71.28;100620.25;5092755;27;45460;-81
2022/09/25 02:10:25;;;;;;;;;6.00;6.00;;;;;13.21;71.60;100566.53;5095386;27;45590;-82
2022/09/25 02:12:57;;;;;;;;;5.75;5.75;;;;;13.37;71.41;100597.03;5095017;27;45432;-81
2022/09/25 02:15:28;;;;;;;;;8.00;5.75;;;;;13.55;71.74;100635.41;5091893;27;45564;-82
2022/09/25 02:20:49;;;;;;;;;5.25;5.25;;;;;13.56;72.02;100634.50;5089431;27;45411;-81
2022/09/25 02:23:43;;;;;;;;;10.25;6.00;;;;;13.53;72.30;100626.66;5063857;27;45343;-82
2022/09/25 02:26:17;;;;;;;;;7.00;5.25;;;;;13.55;72.17;100624.81;5087534;27;46164;-82
2022/09/25 02:28:42;;;;;;;;;6.25;6.00;;;;;13.50;71.99;100627.59;5068865;27;45969;-83
2022/09/25 02:31:11;;;;;;;;;6.25;5.00;;;;;13.47;72.04;100621.53;5084078;27;45484;-82
2022/09/25 02:33:37;;;;;;;;;4.75;4.75;;;;;13.48;72.10;100625.91;5084968;27;45487;-83
2022/09/25 02:36:05;;;;;;;;;4.75;4.75;;;;;13.37;71.82;100609.44;5086888;27;46126;-82
2022/09/25 02:38:32;;;;;;;;;4.00;4.00;;;;;13.48;72.07;100612.63;5092761;27;45571;-82
2022/09/25 02:41:40;;;;;;;;;5.00;5.00;;;;;13.39;71.64;100597.00;5072444;27;45379;-82
2022/09/25 02:44:06;;;;;;;;;5.50;5.50;;;;;13.56;71.78;100623.91;5087649;27;45638;-83
2022/09/25 02:46:44;;;;;;;;;6.50;6.25;;;;;13.56;71.99;100631.88;5088138;27;46256;-82
2022/09/25 02:49:22;;;;;;;;;3.50;3.50;;;;;13.44;71.72;100605.69;5085673;27;45470;-82
2022/09/25 02:52:05;;;;;;;;;6.75;5.25;;;;;13.55;71.47;100638.06;5086107;27;45567;-83
2022/09/25 02:54:39;;;;;;;;;6.00;5.00;;;;;13.57;71.29;100635.38;5072429;27;45506;-81
2022/09/25 02:57:30;;;;;;;;;7.50;6.75;;;;;13.57;72.06;100636.22;5089170;27;45461;-84
2022/09/25 03:00:00;;;;;;;;;4.00;4.00;;;;;13.51;72.26;100628.47;5099899;27;45345;-84
2022/09/25 03:02:27;;;;;;;;;3.50;3.50;;;;;13.46;72.33;100635.72;5084161;27;45286;-82
2022/09/25 03:04:54;;;;;;;;;7.50;6.75;;;;;13.46;72.76;100646.34;5093748;27;45351;-82
2022/09/25 03:07:20;;;;;;;;;11.50;9.75;;;;;13.25;72.71;100608.88;5100715;27;45468;-81
2022/09/25 03:09:50;;;;;;;;;5.50;5.50;;;;;13.46;72.88;100655.16;5096615;27;45634;-81
2022/09/25 03:12:15;;;;;;;;;7.25;6.50;;;;;13.36;73.13;100645.75;5093385;27;45528;-82
2022/09/25 03:14:40;;;;;;;;;6.00;6.00;;;;;13.29;73.27;100634.41;5072554;27;45384;-82
2022/09/25 03:17:08;;;;;;;;;5.25;5.00;;;;;13.29;73.68;100647.69;5094341;27;46156;-82
2022/09/25 03:19:34;;;;;;;;;10.00;6.25;;;;;13.31;73.83;100663.56;5095000;27;45710;-81
2022/09/25 03:22:00;;;;;;;;;7.00;6.50;;;;;13.31;73.68;100653.78;5093671;27;44932;-81
2022/09/25 03:24:26;;;;;;;;;8.50;7.00;;;;;13.11;73.81;100616.38;5096317;27;45410;-81
2022/09/25 03:26:55;;;;;;;;;10.25;7.00;;;;;13.17;74.16;100634.78;5089226;27;46690;-81
2022/09/25 03:29:21;;;;;;;;;7.00;6.00;;;;;13.25;73.78;100648.69;5093823;27;45527;-82
2022/09/25 03:31:46;;;;;;;;;6.00;6.00;;;;;13.29;73.68;100654.78;5082989;27;45820;-81
2022/09/25 03:34:13;;;;;;;;;6.00;6.00;;;;;13.27;74.10;100657.47;5088923;27;45722;-81
2022/09/25 03:36:39;;;;;;;;;9.25;7.00;;;;;13.19;73.98;100646.22;5083623;27;46561;-82
2022/09/25 03:39:05;;;;;;;;;7.75;6.75;;;;;13.24;74.10;100665.53;5090109;27;45305;-81
2022/09/25 03:41:33;;;;;;;;;9.50;8.00;;;;;13.25;74.19;100674.34;5088940;27;45475;-82
2022/09/25 03:44:00;;;;;;;;;6.25;6.25;;;;;13.20;74.34;100655.91;5089713;27;45574;-80
2022/09/25 03:46:30;;;;;;;;;9.00;9.00;;;;;13.24;74.00;100670.84;5085931;27;45631;-82
2022/09/25 03:48:57;;;;;;;;;10.25;8.75;;;;;13.11;74.23;100645.56;5070651;27;45679;-81
2022/09/25 03:51:23;;;;;;;;;11.00;9.75;;;;;13.26;74.28;100666.34;5088777;27;45709;-82
2022/09/25 03:53:49;;;;;;;;;10.00;10.00;;;;;13.24;73.95;100670.84;5085267;27;45678;-81
2022/09/25 03:56:19;;;;;;;;;8.00;5.75;;;;;13.23;73.87;100671.75;5069099;27;45531;-83
2022/09/25 03:58:45;;;;;;;;;15.25;11.75;;;;;13.14;74.33;100666.72;5086939;27;45598;-82
2022/09/25 04:01:11;;;;;;;;;7.50;7.50;;;;;13.14;74.22;100661.41;5084290;27;45607;-82
2022/09/25 04:03:38;;;;;;;;;5.00;5.00;;;;;13.17;74.31;100674.59;5092760;27;45559;-82
2022/09/25 04:06:05;;;;;;;;;9.25;7.25;;;;;13.04;74.38;100659.94;5085875;27;45502;-82
2022/09/25 04:08:32;;;;;;;;;6.00;5.25;;;;;13.20;73.86;100670.97;5057326;27;45595;-82
2022/09/25 04:10:58;;;;;;;;;8.00;6.00;;;;;13.15;74.06;100669.31;5084912;27;45475;-82
2022/09/25 04:13:28;;;;;;;;;8.75;8.00;;;;;13.06;73.75;100647.50;5086207;27;45369;-82
2022/09/25 04:15:55;;;;;;;;;6.00;6.00;;;;;13.21;74.06;100668.28;5086713;27;45963;-82
2022/09/25 04:18:20;;;;;;;;;5.75;5.75;;;;;13.18;74.14;100673.69;5089798;27;45425;-81
2022/09/25 04:20:46;;;;;;;;;9.00;9.00;;;;;13.11;73.85;100664.16;5086538;27;45375;-82
2022/09/25 04:23:11;;;;;;;;;8.50;8.50;;;;;13.13;73.63;100678.22;5081757;27;45496;-81
2022/09/25 04:25:37;;;;;;;;;6.75;6.00;;;;;13.06;74.15;100658.13;5057464;27;47218;-82
2022/09/25 04:28:04;;;;;;;;;8.25;8.00;;;;;12.95;73.93;100661.06;5094222;27;45488;-81
2022/09/25 04:30:29;;;;;;;;;9.50;9.00;;;;;12.97;74.08;100672.50;5088429;27;45468;-81
2022/09/25 04:35:40;;;;;;;;;10.00;10.00;;;;;12.90;74.64;100660.31;5097356;27;45410;-83
2022/09/25 04:38:05;;;;;;;;;9.00;8.50;;;;;12.96;74.14;100674.28;5110953;27;45337;-82
2022/09/25 04:40:32;;;;;;;;;9.00;9.00;;;;;13.01;74.42;100675.94;5103061;27;45419;-82
2022/09/25 04:43:01;;;;;;;;;12.50;10.00;;;;;12.85;74.42;100660.47;5073409;27;45546;-82
2022/09/25 04:45:28;;;;;;;;;14.50;11.50;;;;;12.51;74.42;100591.56;5063543;27;46053;-81
2022/09/25 04:47:55;;;;;;;;;12.50;11.50;;;;;12.97;74.96;100701.69;5084567;27;45574;-82
2022/09/25 04:50:24;;;;;;;;;9.75;9.75;;;;;12.86;74.64;100666.63;5084017;27;45612;-82
2022/09/25 04:52:50;;;;;;;;;11.25;9.75;;;;;12.94;74.36;100694.69;5070345;27;45554;-83
2022/09/25 04:55:23;;;;;;;;;13.25;10.75;;;;;12.98;74.74;100690.16;5086918;27;45570;-81
2022/09/25 04:57:55;;;;;;;;;7.00;7.00;;;;;12.81;74.30;100658.78;5087955;27;45485;-82
2022/09/25 05:00:21;;;;;;;;;14.25;13.25;;;;;12.98;74.43;100696.34;5089744;27;45281;-82
2022/09/25 05:02:47;;;;;;;;;9.75;9.00;;;;;13.00;74.45;100695.41;5097948;27;45444;-82
2022/09/25 05:05:13;;;;;;;;;17.00;14.75;;;;;13.03;74.41;100700.66;5096839;27;45482;-81
2022/09/25 05:07:39;;;;;;;;;13.00;10.00;;;;;12.93;74.59;100687.63;5075768;27;45509;-82
2022/09/25 05:10:07;;;;;;;;;17.50;14.00;;;;;12.96;74.56;100700.81;5089499;27;45422;-82
2022/09/25 05:12:33;;;;;;;;;15.75;14.00;;;;;12.91;74.43;100692.13;5086099;27;45358;-82
2022/09/25 05:14:58;;;;;;;;;15.25;12.25;;;;;12.97;74.05;100707.88;5090234;27;46660;-81
2022/09/25 05:17:23;;;;;;;;;11.00;10.00;;;;;13.00;74.09;100709.56;5094887;27;45483;-81
2022/09/25 05:19:49;;;;;;;;;13.25;10.50;;;;;12.92;73.77;100698.28;5091969;27;45306;-82
2022/09/25 05:22:14;;;;;;;;;19.25;13.00;;;;;12.94;74.03;100709.75;5091708;27;45425;-80
2022/09/25 05:24:39;;;;;;;;;13.00;13.00;;;;;12.89;74.02;100693.94;5091591;27;45478;-82
2022/09/25 05:27:05;;;;;;;;;14.00;13.00;;;;;12.86;74.26;100694.03;5088927;27;45723;-83
2022/09/25 05:29:31;;;;;;;;;18.75;15.00;;;;;12.69;74.46;100670.59;5097348;27;45662;-82
2022/09/25 05:31:56;;;;;;;;;13.00;12.00;;;;;12.85;74.00;100708.19;5095331;27;45420;-82
2022/09/25 05:34:22;;;;;;;;;17.25;15.00;;;;;12.92;73.77;100709.78;5092839;27;45615;-82
2022/09/25 05:36:47;;;;;;;;;14.75;14.00;;;;;12.90;74.02;100722.19;5077290;27;45703;-82
2022/09/25 05:39:12;;;;;;;;;13.00;10.25;;;;;12.79;73.70;100700.41;5095089;27;45629;-82
2022/09/25 05:41:38;;;;;;;;;13.75;13.75;;;;;12.86;73.67;100717.03;5088517;27;45725;-82
2022/09/25 05:44:08;;;;;;;;;17.50;16.75;;;;;12.80;74.00;100710.13;5094706;27;45902;-82
2022/09/25 05:46:35;;;;;;;;;13.75;12.50;;;;;12.74;74.33;100713.81;5092154;27;45617;-81
2022/09/25 05:49:01;;;;;;;;;15.25;13.75;;;;;12.72;74.52;100723.59;5091643;27;45565;-80
2022/09/25 05:51:27;;;;;;;;;16.00;14.00;;;;;12.37;74.04;100668.81;5091786;27;45524;-81
2022/09/25 05:53:53;;;;;;;;;18.00;15.00;;;;;12.38;74.16;100671.44;5093474;27;45502;-82
2022/09/25 05:56:19;;;;;;;;;14.00;13.50;;;;;12.70;73.91;100708.63;5088443;27;45433;-82
2022/09/25 05:58:46;;;;;;;;;15.50;12.50;;;;;12.63;73.84;100702.59;5090334;27;45536;-82
2022/09/25 06:01:11;;;;;;;;;15.75;12.75;;;;;12.84;73.65;100738.28;5093409;27;45290;-83
2022/09/25 06:03:36;;;;;;;;;13.75;11.25;;;;;12.52;73.63;100689.63;5105572;27;45912;-82
2022/09/25 06:06:02;;;;;;;;;13.25;10.75;;;;;12.79;73.35;100746.38;5078193;27;45536;-83
2022/09/25 06:08:31;;;;;;;;;17.25;14.25;;;;;12.80;73.61;100745.47;5076532;27;45369;-82
2022/09/25 06:10:58;;;;;;;;;12.00;10.25;;;;;12.77;73.82;100736.72;5093104;27;45719;-82
2022/09/25 06:13:24;;;;;;;;;13.25;10.25;;;;;12.77;73.65;100732.28;5093317;27;46509;-82
2022/09/25 06:15:51;;;;;;;;;12.00;10.00;;;;;12.75;73.68;100739.41;5092106;27;45534;-81
2022/09/25 06:18:19;;;;;;;;;15.25;10.25;;;;;12.66;73.25;100729.03;5095217;27;45304;-81
2022/09/25 06:20:44;;;;;;;;;13.50;9.25;;;;;12.73;73.37;100732.41;5091761;27;45484;-83
2022/09/25 06:23:10;;;;;;;;;15.75;13.00;;;;;12.80;73.18;100747.25;5089461;27;45496;-82
2022/09/25 06:25:35;;;;;;;;;9.25;9.25;;;;;12.36;72.90;100685.63;5090702;27;45338;-82
2022/09/25 06:28:01;;;;;;;;;11.75;11.00;;;;;12.72;72.92;100738.59;5096756;27;45446;-83
2022/09/25 06:30:34;;;;;;;;;14.50;9.75;;;;;12.83;72.95;100757.78;5089658;27;45365;-82
2022/09/25 06:33:11;;;;;;;;;6.75;6.75;;;;;12.32;72.43;100662.78;5090039;27;46684;-80
2022/09/25 06:35:41;;;;;;;;;12.25;9.50;;;;;12.94;72.63;100761.00;5089641;27;45680;-82
2022/09/25 06:38:08;;;;;;;;;7.50;6.50;;;;;12.91;71.50;100750.47;5090230;27;45508;-82
2022/09/25 06:40:33;;;;;;;;;9.50;9.50;;;;;12.89;71.18;100752.31;5077745;27;45377;-83
2022/09/25 06:43:01;;;;;;;;;11.25;9.00;;;;;12.78;71.46;100720.78;5087974;27;45491;-81
2022/09/25 06:45:32;;;;;;;;;8.00;8.00;;;;;13.05;70.57;100763.38;5098358;27;45364;-85
2022/09/25 06:48:01;;;;;;;;;8.75;8.50;;;;;12.97;70.64;100745.00;5089257;27;45432;-80
2022/09/25 06:50:31;;;;;;;;;9.50;9.50;;;;;13.12;70.46;100761.44;5086318;27;45599;-80
2022/09/25 06:53:00;;;;;;;;;8.75;8.75;;;;;13.13;70.25;100765.81;5083774;27;45514;-79
2022/09/25 06:55:27;;;;;;;;;8.50;7.50;;;;;13.33;69.30;100758.19;5086358;27;45322;-79
2022/09/25 06:57:53;;;;;;;;;10.25;8.00;;;;;13.75;67.56;100676.41;5083827;27;45520;-80
2022/09/25 07:00:18;;;;;;;;;6.25;6.25;;;;;15.00;65.00;100744.06;5082915;27;45433;-80
2022/09/25 07:05:27;;;;;;;;;5.75;5.75;;;;;16.89;58.49;100750.94;5077304;27;45383;-80
2022/09/25 07:07:54;;;;;;;;;7.00;7.00;;;;;17.69;55.72;100744.66;5082292;27;45750;-81
2022/09/25 07:10:20;;;;;;;;;7.00;5.00;;;;;18.37;53.77;100754.78;5101876;27;45515;-83
2022/09/25 07:12:46;;;;;;;;;6.00;6.00;;;;;18.89;52.43;100749.50;5089603;27;45576;-85
2022/09/25 07:15:12;;;;;;;;;9.00;6.75;;;;;19.64;50.88;100755.31;5108399;22;46296;-85
2022/09/25 07:17:42;;;;;;;;;9.00;7.75;;;;;20.38;48.45;100764.59;5096026;27;45455;-84
2022/09/25 07:20:11;;;;;;;;;5.50;5.50;;;;;20.28;46.55;100658.72;5111962;27;45506;-84
2022/09/25 07:22:36;;;;;;;;;6.75;6.75;;;;;20.94;45.95;100699.56;5083424;27;47253;-85
2022/09/25 07:25:02;;;;;;;;;5.75;5.50;;;;;21.48;45.20;100698.88;5102125;27;45467;-82
2022/09/25 07:27:28;;;;;;;;;8.50;6.00;;;;;21.78;43.58;100717.59;5119403;27;45431;-83
2022/09/25 07:29:54;;;;;;;;;4.50;4.50;;;;;21.47;43.77;100678.34;5113827;27;45542;-84
2022/09/25 07:32:19;;;;;;;;;4.00;2.50;;;;;22.41;42.93;100752.13;5108486;27;46070;-81
2022/09/25 07:34:45;;;;;;;;;3.00;2.00;;;;;22.64;42.00;100699.41;5095318;27;45417;-81
2022/09/25 07:37:10;;;;;;;;;4.25;3.25;;;;;23.32;40.36;100732.44;5116743;27;45578;-81
2022/09/25 07:39:37;;;;;;;;;3.00;3.00;;;;;23.52;40.11;100739.09;5111096;27;45579;-82
2022/09/25 07:42:02;;;;;;;;;3.75;3.75;;;;;23.83;39.91;100748.53;5098554;27;46213;-82
2022/09/25 07:44:28;;;;;;;;;4.00;4.00;;;;;23.98;38.93;100737.63;5082017;27;45759;-81
2022/09/25 07:46:53;;;;;;;;;3.50;3.00;;;;;23.65;39.05;100691.38;5058053;27;45378;-81
2022/09/25 07:49:18;;;;;;;;;5.50;4.00;;;;;24.06;37.97;100743.31;5067728;27;45497;-81
2022/09/25 07:51:44;;;;;;;;;7.00;5.00;;;;;24.32;38.26;100759.41;5096123;27;49170;-82
2022/09/25 07:54:09;;;;;;;;;4.00;3.00;;;;;24.48;37.61;100754.56;5089932;27;45371;-82
2022/09/25 07:56:36;;;;;;;;;3.75;3.50;;;;;24.50;37.77;100766.09;5060739;27;45554;-81
2022/09/25 07:59:02;;;;;;;;;4.00;4.00;;;;;24.36;37.93;100761.75;5082001;27;45484;-82
2022/09/25 08:01:27;;;;;;;;;2.00;2.00;;;;;24.25;38.29;100742.81;5091113;27;46254;-81
2022/09/25 08:03:53;;;;;;;;;2.00;2.00;;;;;24.32;37.85;100740.50;5077265;27;45626;-82
2022/09/25 08:06:18;;;;;;;;;3.00;3.00;;;;;24.35;37.50;100757.31;5084954;27;45481;-81
2022/09/25 08:08:44;;;;;;;;;2.50;2.50;;;;;24.78;37.15;100764.91;5083822;27;45531;-82
2022/09/25 08:11:12;;;;;;;;;3.50;2.75;;;;;25.39;36.58;100765.63;5077495;27;46065;-80
2022/09/25 08:13:39;;;;;;;;;3.50;2.25;;;;;25.64;35.61;100743.75;5082810;27;45494;-82
2022/09/25 08:16:16;;;;;;;;;3.00;3.00;;;;;25.71;35.39;100719.78;5078324;27;45423;-81
2022/09/25 08:18:47;;;;;;;;;2.25;2.25;;;;;25.98;34.70;100718.47;5091089;27;45325;-82
2022/09/25 08:21:14;;;;;;;;;6.00;3.00;;;;;25.97;34.03;100733.88;5084694;27;46291;-82
2022/09/25 08:23:41;;;;;;;;;4.00;2.50;;;;;26.26;34.15;100757.69;5080966;27;45319;-81
2022/09/25 08:26:07;;;;;;;;;3.00;3.00;;;;;26.05;34.17;100755.81;5080570;27;45681;-81
2022/09/25 08:28:33;;;;;;;;;3.00;2.50;;;;;26.13;33.94;100767.81;5082795;27;45459;-82
2022/09/25 08:31:03;;;;;;;;;1.50;1.50;;;;;26.28;33.40;100749.44;5088113;27;46057;-81
2022/09/25 08:33:29;;;;;;;;;3.00;3.00;;;;;26.56;33.15;100764.25;5089765;27;45710;-80
2022/09/25 08:36:03;;;;;;;;;2.00;0.75;;;;;26.35;33.07;100691.91;5071943;28;45422;-82
2022/09/25 08:38:31;;;;;;;;;3.25;2.25;;;;;26.94;32.34;100771.81;5085930;27;45372;-81
2022/09/25 08:41:29;;;;;;;;;3.50;3.00;;;;;27.11;32.55;100761.38;5080520;27;46163;-81
2022/09/25 08:44:07;;;;;;;;;2.00;1.25;;;;;27.15;31.88;100734.84;5069362;27;45538;-84
2022/09/25 08:49:43;;;;;;;;;4.75;2.00;;;;;27.77;31.04;100752.84;5079666;27;45517;-84
2022/09/25 08:52:17;;;;;;;;;3.00;2.00;;;;;27.83;31.02;100763.16;5091236;27;46753;-82
2022/09/25 08:54:43;;;;;;;;;1.00;1.00;;;;;27.95;30.85;100750.34;5083486;27;45468;-82
2022/09/25 08:57:42;;;;;;;;;1.00;1.00;;;;;27.71;30.49;100726.28;5107578;27;45425;-83
2022/09/25 09:00:22;;;;;;;;;1.00;1.00;;;;;27.88;30.21;100745.56;5097162;27;45344;-83
2022/09/25 09:02:53;;;;;;;;;0.75;0.75;;;;;27.74;31.02;100735.97;5082626;27;46287;-82
2022/09/25 09:05:23;;;;;;;;;0.25;0.25;;;;;28.09;30.56;100768.13;5092746;27;45403;-83
2022/09/25 09:08:15;;;;;;;;;2.00;2.00;;;;;27.95;29.66;100753.06;5077712;27;45573;-83
2022/09/25 09:11:12;;;;;;;;;1.00;1.00;;;;;28.24;29.71;100770.41;5086272;27;45419;-84
2022/09/25 09:13:47;;;;;;;;;2.00;2.00;;;;;27.88;29.68;100716.59;5085549;27;45460;-84
2022/09/25 09:16:27;;;;;;;;;0.00;0.00;;;;;28.06;29.70;100762.09;5091245;27;45653;-83
2022/09/25 09:18:54;;;;;;;;;1.50;0.00;;;;;28.01;29.48;100765.22;5084209;27;45478;-83
2022/09/25 09:21:36;;;;;;;;;3.75;1.75;;;;;27.88;29.88;100765.47;5097770;27;45431;-83
2022/09/25 09:24:15;;;;;;;;;1.75;0.00;;;;;27.68;29.96;100775.41;5087519;27;46173;-82
2022/09/25 09:27:00;;;;;;;;;1.00;1.00;;;;;27.76;29.31;100772.84;5088873;27;45511;-83
2022/09/25 09:29:50;;;;;;;;;1.00;1.00;;;;;27.50;29.89;100768.88;5097451;27;45264;-82
2022/09/25 09:32:33;;;;;;;;;0.00;0.00;;;;;27.23;29.62;100770.31;5092543;27;45356;-84
2022/09/25 09:35:26;;;;;;;;;0.25;0.00;;;;;27.37;30.06;100772.69;5080991;27;45521;-83
2022/09/25 09:38:10;;;;;;;;;0.00;0.00;;;;;27.40;29.90;100761.56;5077505;27;45437;-84
2022/09/25 09:40:50;;;;;;;;;0.25;0.25;;;;;27.38;29.35;100768.97;5094341;27;45539;-83
2022/09/25 09:43:30;;;;;;;;;1.25;1.25;;;;;27.33;29.37;100771.25;5093351;27;45426;-82
2022/09/25 09:46:14;;;;;;;;;1.00;1.00;;;;;27.40;29.14;100748.00;5077343;27;45641;-82
2022/09/25 09:48:54;;;;;;;;;1.00;1.00;;;;;27.30;28.48;100774.19;5082167;27;45400;-83
2022/09/25 09:51:43;;;;;;;;;0.00;0.00;;;;;26.85;29.11;100736.53;5085717;27;45711;-83
2022/09/25 09:54:14;;;;;;;;;0.50;0.50;;;;;27.12;29.14;100763.94;5095030;27;45401;-84
2022/09/25 09:56:43;;;;;;;;;1.50;1.00;;;;;27.10;28.19;100746.97;5083031;27;47156;-83
2022/09/25 09:59:13;;;;;;;;;0.75;0.75;;;;;26.76;28.32;100703.78;5098304;27;45280;-83
2022/09/25 10:01:43;;;;;;;;;0.00;0.00;;;;;26.99;28.22;100774.13;5067772;27;45501;-82
2022/09/25 10:04:19;;;;;;;;;1.00;1.00;;;;;27.02;27.73;100762.19;5102434;27;45366;-80
2022/09/25 10:06:52;;;;;;;;;0.00;0.00;;;;;27.01;28.02;100772.19;5070898;27;45936;-84
2022/09/25 10:09:19;;;;;;;;;0.00;0.00;;;;;27.04;28.45;100765.59;5085012;27;45302;-82
2022/09/25 10:11:58;;;;;;;;;0.00;0.00;;;;;27.19;27.70;100768.84;5073668;27;45442;-82
2022/09/25 10:14:30;;;;;;;;;0.25;0.25;;;;;27.14;27.73;100761.09;5091403;27;45368;-82
2022/09/25 10:17:00;;;;;;;;;1.50;1.00;;;;;27.09;27.78;100758.78;5085910;27;45546;-80
2022/09/25 10:19:43;;;;;;;;;0.00;0.00;;;;;27.11;27.20;100756.81;5088409;27;45510;-83
2022/09/25 10:22:19;;;;;;;;;0.00;0.00;;;;;26.93;27.32;100761.13;5084265;27;45478;-83
2022/09/25 10:24:50;;;;;;;;;1.00;1.00;;;;;26.88;27.96;100760.66;5079802;27;45461;-82
2022/09/25 10:27:23;;;;;;;;;1.00;0.00;;;;;26.64;27.35;100742.75;5078262;27;46446;-81
2022/09/25 10:30:02;;;;;;;;;1.00;0.00;;;;;27.01;27.78;100757.75;5100318;27;45542;-83
2022/09/25 10:32:29;;;;;;;;;0.25;0.25;;;;;26.83;26.65;100736.66;5109199;27;45362;-80
2022/09/25 10:34:55;;;;;;;;;0.00;0.00;;;;;26.76;26.86;100730.91;5082718;27;45613;-80
2022/09/25 10:37:25;;;;;;;;;0.00;0.00;;;;;26.75;26.97;100744.56;5092040;27;45547;-83
2022/09/25 10:40:03;;;;;;;;;0.00;0.00;;;;;26.31;28.08;100744.63;5095340;27;45449;-83
2022/09/25 10:42:40;;;;;;;;;0.00;0.00;;;;;26.32;27.89;100726.53;5101170;27;45584;-81
2022/09/25 10:45:35;;;;;;;;;0.00;0.00;;;;;26.75;27.60;100733.72;5087171;27;45845;-83
2022/09/25 10:51:07;;;;;;;;;1.00;0.00;;;;;27.33;26.88;100738.69;5097539;27;45545;-80
2022/09/25 10:53:33;;;;;;;;;0.75;0.00;;;;;27.39;26.19;100743.56;5114760;27;45511;-81
2022/09/25 10:56:05;;;;;;;;;0.75;0.75;;;;;27.46;25.93;100742.00;5099315;27;45483;-81
2022/09/25 10:58:52;;;;;;;;;1.25;0.00;;;;;27.62;25.80;100743.38;5081596;27;45569;-81
2022/09/25 11:01:18;;;;;;;;;1.00;0.75;;;;;27.65;25.83;100733.09;5089289;27;45422;-82
2022/09/25 11:03:43;;;;;;;;;0.00;0.00;;;;;27.80;25.55;100741.72;5094341;27;45459;-82
2022/09/25 11:06:20;;;;;;;;;0.00;0.00;;;;;27.79;25.27;100739.16;5081282;27;45181;-82
2022/09/25 11:09:06;;;;;;;;;0.00;0.00;;;;;27.71;25.98;100742.56;5058056;28;46164;-81
2022/09/25 11:11:32;;;;;;;;;0.00;0.00;;;;;27.46;25.68;100744.72;5082768;27;45397;-83
2022/09/25 11:14:03;;;;;;;;;1.00;1.00;;;;;27.27;26.28;100750.03;5075923;27;45433;-81
2022/09/25 11:16:45;;;;;;;;;0.25;0.25;;;;;27.10;26.08;100743.38;5086232;27;45791;-81
2022/09/25 11:19:21;;;;;;;;;0.50;0.25;;;;;27.26;26.38;100745.63;5088375;27;45480;-81
2022/09/25 11:22:03;;;;;;;;;0.00;0.00;;;;;27.41;25.93;100748.88;5089793;27;45610;-82
2022/09/25 11:24:43;;;;;;;;;1.00;0.00;;;;;27.30;25.56;100722.66;5076561;27;45451;-82
2022/09/25 11:27:20;;;;;;;;;0.25;0.00;;;;;27.41;25.61;100752.44;5088110;27;45334;-82
2022/09/25 11:30:09;;;;;;;;;0.00;0.00;;;;;27.07;25.45;100709.28;5065214;28;45541;-82
2022/09/25 11:32:51;;;;;;;;;0.00;0.00;;;;;27.41;25.63;100752.44;5089814;27;45489;-81
2022/09/25 11:35:26;;;;;;;;;0.00;0.00;;;;;27.52;26.12;100756.06;5076014;27;45513;-80
2022/09/25 11:38:04;;;;;;;;;0.00;0.00;;;;;27.41;25.59;100760.56;5089900;27;45316;-83
2022/09/25 11:43:34;;;;;;;;;0.00;0.00;;;;;27.45;25.36;100739.44;5092283;27;45593;-80
2022/09/25 11:46:18;;;;;;;;;1.50;1.00;;;;;27.26;25.87;100743.75;5078951;27;45450;-81
2022/09/25 11:49:10;;;;;;;;;1.00;1.00;;;;;27.48;26.54;100752.72;5094613;27;45465;-81
2022/09/25 11:52:15;;;;;;;;;0.00;0.00;;;;;27.86;25.88;100742.16;5085117;27;46696;-81
2022/09/25 11:55:10;;;;;;;;;2.25;1.00;;;;;28.00;25.97;100745.38;5092656;27;45504;-81
2022/09/25 11:57:49;;;;;;;;;0.00;0.00;;;;;27.63;26.17;100740.53;5088213;27;45465;-80